Time;durP1;ratioP1;P1;durP2;ratioP2;P2;SDS_P1;SDS_P2;PMS_P1;PMS_P2;Temp;Humidity;BMP_temperature;BMP_pressure;BME280_temperature;BME280_humidity;BME280_pressure;Samples;Min_cycle;Max_cycle;Signal;HPM_P1;HPM_P2
2022/03/23 00:01:03;;;;;;;18.63;8.55;;;;;;;5.06;nan;103295.59;4985104;28;20110;-77
2022/03/23 00:03:29;;;;;;;14.80;8.55;;;;;;;5.03;nan;103287.09;4984102;28;20048;-77
2022/03/23 00:05:54;;;;;;;17.13;8.85;;;;;;;4.98;nan;103292.00;4984092;28;20076;-77
2022/03/23 00:08:21;;;;;;;19.70;9.18;;;;;;;4.93;nan;103294.28;4975465;28;20030;-77
2022/03/23 00:10:47;;;;;;;14.85;8.18;;;;;;;4.90;nan;103290.09;4985521;28;20537;-78
2022/03/23 00:13:13;;;;;;;14.82;7.88;;;;;;;4.84;nan;103286.19;4981473;28;20113;-78
2022/03/23 00:15:40;;;;;;;16.83;8.70;;;;;;;4.81;nan;103283.00;4980589;28;20579;-76
2022/03/23 00:18:06;;;;;;;18.02;9.23;;;;;;;4.76;nan;103278.13;4982868;28;20030;-75
2022/03/23 00:20:33;;;;;;;16.77;9.77;;;;;;;4.72;nan;103281.25;4974178;28;20031;-75
2022/03/23 00:22:59;;;;;;;14.15;7.90;;;;;;;4.69;nan;103270.94;4975326;28;20045;-76
2022/03/23 00:25:24;;;;;;;17.25;8.00;;;;;;;4.66;nan;103273.84;4982111;28;20035;-75
2022/03/23 00:27:50;;;;;;;15.70;9.70;;;;;;;4.62;nan;103275.97;4984004;28;20035;-75
2022/03/23 00:30:15;;;;;;;13.77;9.13;;;;;;;4.59;nan;103276.25;4977131;28;20030;-75
2022/03/23 00:32:41;;;;;;;16.13;9.25;;;;;;;4.55;nan;103269.59;4982172;28;20054;-75
2022/03/23 00:35:07;;;;;;;15.00;8.65;;;;;;;4.51;nan;103277.00;4977574;28;20606;-75
2022/03/23 00:37:32;;;;;;;14.18;8.98;;;;;;;4.46;nan;103273.94;4982201;28;20089;-75
2022/03/23 00:39:58;;;;;;;17.92;9.45;;;;;;;4.42;nan;103269.91;4980354;28;20416;-75
2022/03/23 00:42:23;;;;;;;14.93;9.70;;;;;;;4.39;nan;103264.91;4979183;28;20500;-76
2022/03/23 00:44:51;;;;;;;15.75;9.18;;;;;;;4.34;nan;103272.47;4978512;28;20030;-76
2022/03/23 00:47:17;;;;;;;16.98;9.25;;;;;;;4.30;nan;103268.41;4978267;28;20031;-76
2022/03/23 00:49:43;;;;;;;14.30;9.10;;;;;;;4.27;nan;103265.22;4982062;28;20362;-76
2022/03/23 00:52:10;;;;;;;17.08;9.98;;;;;;;4.23;nan;103264.66;4977725;28;20033;-75
2022/03/23 00:54:37;;;;;;;17.15;10.23;;;;;;;4.21;nan;103269.28;4980339;28;20033;-75
2022/03/23 00:57:04;;;;;;;17.50;9.55;;;;;;;4.18;nan;103258.97;4980414;28;20034;-75
2022/03/23 00:59:29;;;;;;;15.00;9.52;;;;;;;4.13;nan;103258.53;4979527;28;20041;-76
2022/03/23 01:01:55;;;;;;;22.73;9.75;;;;;;;4.10;nan;103253.53;4980916;28;20952;-75
2022/03/23 01:04:20;;;;;;;15.43;8.55;;;;;;;4.06;nan;103257.47;4978716;28;20046;-75
2022/03/23 01:06:46;;;;;;;16.95;9.90;;;;;;;4.03;nan;103257.75;4980641;28;20084;-75
2022/03/23 01:09:12;;;;;;;14.40;9.00;;;;;;;4.00;nan;103255.38;4981076;28;20063;-75
2022/03/23 01:11:39;;;;;;;17.67;9.20;;;;;;;3.97;nan;103255.69;4984494;28;20033;-75
2022/03/23 01:14:06;;;;;;;14.63;9.05;;;;;;;3.94;nan;103248.81;4979896;28;20485;-75
2022/03/23 01:16:32;;;;;;;18.17;10.02;;;;;;;3.89;nan;103246.59;4974574;28;20030;-75
2022/03/23 01:18:58;;;;;;;15.45;9.77;;;;;;;3.88;nan;103244.09;4977569;28;20110;-75
2022/03/23 01:21:24;;;;;;;16.02;10.23;;;;;;;3.84;nan;103246.19;4976133;28;20166;-75
2022/03/23 01:23:50;;;;;;;16.10;9.15;;;;;;;3.82;nan;103248.16;4975057;28;20120;-75
2022/03/23 01:26:16;;;;;;;20.08;9.48;;;;;;;3.80;nan;103244.81;4975721;28;20086;-75
2022/03/23 01:28:42;;;;;;;18.45;9.27;;;;;;;3.78;nan;103243.28;4978377;28;20034;-75
2022/03/23 01:31:08;;;;;;;21.90;9.93;;;;;;;3.75;nan;103241.75;4977968;28;20035;-75
2022/03/23 01:33:34;;;;;;;20.92;10.82;;;;;;;3.70;nan;103240.50;4977003;28;20053;-75
2022/03/23 01:36:00;;;;;;;23.30;10.05;;;;;;;3.66;nan;103229.34;4974476;28;20018;-75
2022/03/23 01:38:25;;;;;;;19.45;9.60;;;;;;;3.63;nan;103235.78;4972742;28;20055;-75
2022/03/23 01:40:51;;;;;;;16.42;9.48;;;;;;;3.59;nan;103234.38;4976502;28;20019;-74
2022/03/23 01:43:16;;;;;;;19.75;10.80;;;;;;;3.56;nan;103239.94;4975010;28;20026;-75
2022/03/23 01:45:42;;;;;;;18.63;9.73;;;;;;;3.55;nan;103235.63;4977938;28;20380;-75
2022/03/23 01:48:08;;;;;;;19.42;10.45;;;;;;;3.54;nan;103233.13;4972402;28;20034;-75
2022/03/23 01:50:33;;;;;;;18.13;9.85;;;;;;;3.51;nan;103225.44;4976845;28;20067;-75
2022/03/23 01:52:59;;;;;;;19.23;10.23;;;;;;;3.46;nan;103222.41;4974606;28;20070;-75
2022/03/23 01:55:25;;;;;;;16.80;9.13;;;;;;;3.42;nan;103215.72;4975660;28;20121;-75
2022/03/23 01:57:52;;;;;;;17.90;9.93;;;;;;;3.39;nan;103237.16;4978068;28;20033;-75
2022/03/23 02:00:19;;;;;;;20.45;10.95;;;;;;;3.36;nan;103234.81;4973789;28;20035;-75
2022/03/23 02:02:45;;;;;;;16.35;9.68;;;;;;;3.33;nan;103236.75;4978444;28;20026;-75
2022/03/23 02:05:13;;;;;;;21.42;10.98;;;;;;;3.31;nan;103224.63;4977778;28;20035;-75
2022/03/23 02:07:39;;;;;;;20.13;10.50;;;;;;;3.30;nan;103228.25;4973588;28;20027;-75
2022/03/23 02:10:06;;;;;;;20.95;10.75;;;;;;;3.27;nan;103234.69;4977149;28;20084;-75
2022/03/23 02:12:31;;;;;;;15.90;10.45;;;;;;;3.23;nan;103227.13;4977465;28;20025;-75
2022/03/23 02:14:58;;;;;;;23.95;11.20;;;;;;;3.20;nan;103225.59;4975909;28;20030;-75
2022/03/23 02:17:25;;;;;;;20.50;12.02;;;;;;;3.19;nan;103226.56;4978139;28;20073;-75
2022/03/23 02:19:51;;;;;;;18.75;10.90;;;;;;;3.17;nan;103220.56;4971991;28;20370;-75
2022/03/23 02:22:16;;;;;;;18.63;10.00;;;;;;;3.14;nan;103222.66;4975481;28;20019;-75
2022/03/23 02:24:46;;;;;;;18.23;9.65;;;;;;;3.10;nan;103221.28;4974709;28;20423;-75
2022/03/23 02:27:12;;;;;;;17.27;10.38;;;;;;;3.08;nan;103223.22;4978212;28;20110;-74
2022/03/23 02:29:38;;;;;;;19.10;10.02;;;;;;;3.04;nan;103214.69;4977227;28;20046;-74
2022/03/23 02:32:05;;;;;;;18.27;10.93;;;;;;;3.01;nan;103222.94;4972543;28;20058;-75
2022/03/23 02:34:31;;;;;;;19.98;10.45;;;;;;;2.99;nan;103224.88;4973386;28;20030;-74
2022/03/23 02:36:58;;;;;;;20.45;10.75;;;;;;;2.97;nan;103213.59;4973144;28;20033;-75
2022/03/23 02:39:25;;;;;;;19.20;10.73;;;;;;;2.95;nan;103220.84;4973498;28;20022;-74
2022/03/23 02:41:53;;;;;;;19.73;10.68;;;;;;;2.92;nan;103218.47;4977451;28;20794;-75
2022/03/23 02:44:19;;;;;;;20.10;11.18;;;;;;;2.89;nan;103216.94;4974014;28;20034;-75
2022/03/23 02:46:45;;;;;;;20.50;10.50;;;;;;;2.88;nan;103222.38;4976582;28;20034;-75
2022/03/23 02:49:11;;;;;;;17.85;10.13;;;;;;;2.84;nan;103228.91;4971331;28;20038;-74
2022/03/23 02:51:38;;;;;;;20.85;11.60;;;;;;;2.81;nan;103226.53;4977261;28;20062;-75
2022/03/23 03:02:40;;;;;;;19.30;11.07;;;;;;;2.67;nan;103225.94;4975347;28;20511;-75
2022/03/23 03:05:08;;;;;;;18.85;11.63;;;;;;;2.65;nan;103227.88;4975218;28;20049;-75
2022/03/23 03:10:20;;;;;;;20.85;12.10;;;;;;;2.60;nan;103226.63;4973553;28;20090;-75
2022/03/23 03:12:47;;;;;;;24.95;12.75;;;;;;;2.58;nan;103226.75;4974567;28;20042;-74
2022/03/23 03:15:17;;;;;;;21.23;12.15;;;;;;;2.56;nan;103223.41;4975639;28;20031;-74
2022/03/23 03:17:42;;;;;;;24.15;13.55;;;;;;;2.57;nan;103219.78;4971927;28;20031;-74
2022/03/23 03:20:09;;;;;;;20.55;12.13;;;;;;;2.55;nan;103221.72;4976714;28;20572;-74
2022/03/23 03:22:40;;;;;;;24.73;13.50;;;;;;;2.52;nan;103227.31;4974475;28;20018;-72
2022/03/23 03:25:07;;;;;;;23.15;12.80;;;;;;;2.49;nan;103230.19;4975234;28;20133;-72
2022/03/23 03:27:36;;;;;;;23.33;13.35;;;;;;;2.45;nan;103228.78;4974983;28;20512;-72
2022/03/23 03:30:07;;;;;;;24.35;12.82;;;;;;;2.41;nan;103227.38;4971763;28;20453;-72
2022/03/23 03:32:33;;;;;;;24.27;13.48;;;;;;;2.39;nan;103231.97;4973703;28;20023;-72
2022/03/23 03:34:58;;;;;;;28.63;13.63;;;;;;;2.38;nan;103227.66;4971214;28;20031;-72
2022/03/23 03:37:25;;;;;;;24.55;13.60;;;;;;;2.36;nan;103232.25;4974841;28;20076;-72
2022/03/23 03:39:50;;;;;;;26.60;15.00;;;;;;;2.34;nan;103228.91;4975783;28;20556;-72
2022/03/23 03:42:18;;;;;;;32.35;15.88;;;;;;;2.31;nan;103229.97;4975542;28;20027;-72
2022/03/23 03:44:45;;;;;;;30.83;16.25;;;;;;;2.32;nan;103230.81;4972760;28;20034;-72
2022/03/23 03:47:11;;;;;;;31.27;15.85;;;;;;;2.30;nan;103223.03;4976404;28;20035;-72
2022/03/23 03:49:37;;;;;;;32.97;15.80;;;;;;;2.27;nan;103225.09;4976780;28;20053;-72
2022/03/23 03:52:04;;;;;;;35.15;18.33;;;;;;;2.25;nan;103229.69;4975377;28;21929;-72
2022/03/23 03:54:29;;;;;;;33.85;17.30;;;;;;;2.23;nan;103234.28;4984351;28;20031;-72
2022/03/23 03:56:55;;;;;;;38.13;18.25;;;;;;;2.19;nan;103231.06;4977115;28;20049;-72
2022/03/23 03:59:20;;;;;;;29.65;16.58;;;;;;;2.18;nan;103231.19;4979394;28;20432;-72
2022/03/23 04:01:46;;;;;;;33.92;17.08;;;;;;;2.14;nan;103235.88;4978485;28;20019;-72
2022/03/23 04:04:11;;;;;;;32.60;16.42;;;;;;;2.12;nan;103229.91;4976663;28;20030;-72
2022/03/23 04:06:37;;;;;;;26.15;14.57;;;;;;;2.09;nan;103231.00;4974934;28;20023;-72
2022/03/23 04:09:03;;;;;;;25.95;14.80;;;;;;;2.08;nan;103234.63;4979896;28;21812;-72
2022/03/23 04:11:30;;;;;;;25.48;14.10;;;;;;;2.06;nan;103233.91;4981060;28;20023;-72
2022/03/23 04:13:56;;;;;;;23.77;13.63;;;;;;;2.01;nan;103228.19;4977577;28;20038;-72
2022/03/23 04:16:21;;;;;;;22.08;12.52;;;;;;;1.98;nan;103231.09;4977522;28;20072;-72
2022/03/23 04:18:47;;;;;;;24.52;13.35;;;;;;;1.96;nan;103225.06;4979724;28;20103;-72
2022/03/23 04:21:13;;;;;;;25.30;14.15;;;;;;;1.94;nan;103231.47;4980566;28;20439;-72
2022/03/23 04:23:38;;;;;;;25.15;13.30;;;;;;;1.92;nan;103234.25;4977215;28;20023;-72
2022/03/23 04:26:04;;;;;;;25.63;13.82;;;;;;;1.90;nan;103224.78;4973338;28;20031;-72
2022/03/23 04:28:30;;;;;;;30.00;14.35;;;;;;;1.89;nan;103229.22;4976306;28;20078;-72
2022/03/23 04:30:56;;;;;;;23.45;14.00;;;;;;;1.87;nan;103225.03;4975278;28;20484;-72
2022/03/23 04:33:22;;;;;;;24.75;14.50;;;;;;;1.85;nan;103233.09;4979847;28;20117;-71
2022/03/23 04:35:47;;;;;;;25.25;14.15;;;;;;;1.82;nan;103225.44;4975091;28;20026;-72
2022/03/23 04:38:13;;;;;;;28.00;13.98;;;;;;;1.80;nan;103233.50;4983500;28;20447;-72
2022/03/23 04:40:38;;;;;;;26.00;14.05;;;;;;;1.79;nan;103238.88;4973418;28;20027;-71
2022/03/23 04:43:04;;;;;;;27.75;14.50;;;;;;;1.76;nan;103234.69;4975887;28;20030;-72
2022/03/23 04:45:30;;;;;;;27.17;14.40;;;;;;;1.73;nan;103234.97;4979083;28;20085;-72
2022/03/23 04:47:55;;;;;;;27.77;15.88;;;;;;;1.72;nan;103237.75;4975020;28;20030;-72
2022/03/23 04:50:21;;;;;;;24.30;13.68;;;;;;;1.69;nan;103227.44;4979418;28;20030;-72
2022/03/23 04:52:48;;;;;;;31.52;15.90;;;;;;;1.67;nan;103232.00;4982550;28;20162;-72
2022/03/23 04:55:15;;;;;;;32.05;16.42;;;;;;;1.66;nan;103243.56;4975465;28;20041;-72
2022/03/23 04:57:42;;;;;;;35.47;16.35;;;;;;;1.64;nan;103229.63;4973203;28;20102;-72
2022/03/23 05:00:11;;;;;;;26.85;15.65;;;;;;;1.61;nan;103220.13;4979482;28;20045;-71
2022/03/23 05:02:40;;;;;;;32.13;15.48;;;;;;;1.59;nan;103222.06;4975161;28;20019;-72
2022/03/23 05:05:08;;;;;;;33.88;16.20;;;;;;;1.57;nan;103218.72;4980822;28;20022;-72
2022/03/23 05:07:35;;;;;;;28.20;15.40;;;;;;;1.57;nan;103218.72;4977240;28;20331;-72
2022/03/23 05:10:01;;;;;;;30.55;16.10;;;;;;;1.54;nan;103223.44;4978078;28;20027;-72
2022/03/23 05:12:27;;;;;;;30.85;16.30;;;;;;;1.52;nan;103221.75;4980728;28;20169;-72
2022/03/23 05:14:52;;;;;;;31.90;17.83;;;;;;;1.51;nan;103228.00;4979955;28;20026;-71
2022/03/23 05:17:18;;;;;;;34.25;17.30;;;;;;;1.50;nan;103234.25;4977445;28;20034;-72
2022/03/23 05:19:44;;;;;;;31.08;16.92;;;;;;;1.49;nan;103227.28;4979473;28;20021;-71
2022/03/23 05:22:11;;;;;;;35.25;17.30;;;;;;;1.49;nan;103227.28;4980371;28;20037;-72
2022/03/23 05:24:37;;;;;;;31.27;17.00;;;;;;;1.49;nan;103227.28;4977049;28;20026;-72
2022/03/23 05:27:04;;;;;;;29.42;16.80;;;;;;;1.49;nan;103227.28;4978230;28;20042;-72
2022/03/23 05:29:30;;;;;;;33.75;17.27;;;;;;;1.48;nan;103217.69;4978970;28;20019;-72
2022/03/23 05:31:55;;;;;;;34.50;17.63;;;;;;;1.50;nan;103221.03;4975533;28;20025;-72
2022/03/23 05:34:21;;;;;;;31.48;16.92;;;;;;;1.50;nan;103215.75;4981546;28;20038;-72
2022/03/23 05:36:47;;;;;;;35.70;17.83;;;;;;;1.55;nan;103217.19;4973711;28;20031;-72
2022/03/23 05:39:12;;;;;;;37.15;17.13;;;;;;;1.59;nan;103215.94;4979992;28;20110;-72
2022/03/23 05:41:39;;;;;;;38.85;17.92;;;;;;;1.61;nan;103220.13;4981609;28;20027;-72
2022/03/23 05:44:05;;;;;;;34.95;17.50;;;;;;;1.65;nan;103215.44;4971578;28;20026;-72
2022/03/23 05:46:31;;;;;;;36.65;16.92;;;;;;;1.70;nan;103216.72;4976523;28;20033;-72
2022/03/23 05:48:57;;;;;;;34.78;17.38;;;;;;;1.75;nan;103217.16;4977660;28;20030;-72
2022/03/23 05:51:23;;;;;;;33.30;17.23;;;;;;;1.81;nan;103221.97;4975100;28;20037;-72
2022/03/23 05:53:49;;;;;;;34.17;17.38;;;;;;;1.89;nan;103223.94;4971714;28;20027;-72
2022/03/23 05:56:15;;;;;;;43.97;17.38;;;;;;;1.97;nan;103224.09;4971218;28;20030;-72
2022/03/23 05:58:41;;;;;;;35.60;17.83;;;;;;;2.04;nan;103225.28;4971448;28;20026;-72
2022/03/23 06:01:06;;;;;;;35.13;17.33;;;;;;;2.11;nan;103228.22;4981732;28;20033;-72
2022/03/23 06:03:32;;;;;;;39.72;18.88;;;;;;;2.18;nan;103229.41;4975075;28;20054;-72
2022/03/23 06:05:58;;;;;;;37.75;18.27;;;;;;;2.26;nan;103231.34;4972465;28;20054;-72
2022/03/23 06:08:24;;;;;;;36.58;19.73;;;;;;;2.34;nan;103232.38;4972076;28;20050;-72
2022/03/23 06:10:49;;;;;;;36.38;17.92;;;;;;;2.43;nan;103231.56;4976178;28;20025;-73
2022/03/23 06:13:15;;;;;;;31.40;16.67;;;;;;;2.53;nan;103236.91;4979114;28;20135;-72
2022/03/23 06:15:41;;;;;;;31.20;17.98;;;;;;;2.62;nan;103240.53;4971260;28;20049;-73
2022/03/23 06:18:07;;;;;;;35.47;18.80;;;;;;;2.67;nan;103233.88;4974004;28;20388;-73
2022/03/23 06:20:32;;;;;;;35.90;18.30;;;;;;;2.72;nan;103234.31;4974503;28;20026;-73
2022/03/23 06:22:58;;;;;;;37.47;20.20;;;;;;;2.75;nan;103237.66;4971637;28;20372;-73
2022/03/23 06:25:26;;;;;;;37.63;20.98;;;;;;;2.77;nan;103241.84;4972568;28;20397;-73
2022/03/23 06:27:52;;;;;;;43.53;20.98;;;;;;;2.81;nan;103239.75;4976074;28;20626;-73
2022/03/23 06:30:18;;;;;;;40.53;20.00;;;;;;;2.84;nan;103245.63;4975283;28;20464;-73
2022/03/23 06:32:43;;;;;;;40.42;21.80;;;;;;;2.90;nan;103247.75;4970937;28;20030;-74
2022/03/23 06:35:09;;;;;;;40.10;21.20;;;;;;;2.96;nan;103247.19;4972298;28;20033;-73
2022/03/23 06:37:35;;;;;;;44.38;23.58;;;;;;;3.01;nan;103239.66;4976375;28;20030;-73
2022/03/23 06:40:01;;;;;;;38.05;22.27;;;;;;;3.10;nan;103243.31;4978238;28;20369;-73
2022/03/23 06:42:27;;;;;;;38.42;21.90;;;;;;;3.17;nan;103243.59;4972817;28;20027;-73
2022/03/23 06:44:54;;;;;;;44.65;21.45;;;;;;;3.24;nan;103250.03;4975851;28;20113;-74
2022/03/23 06:47:19;;;;;;;36.75;19.98;;;;;;;3.30;nan;103255.59;4973801;28;20030;-73
2022/03/23 06:49:45;;;;;;;42.60;22.48;;;;;;;3.37;nan;103255.03;4977786;28;20124;-74
2022/03/23 06:52:11;;;;;;;51.28;22.73;;;;;;;3.43;nan;103257.13;4980256;28;20374;-73
2022/03/23 06:54:36;;;;;;;41.70;20.48;;;;;;;3.48;nan;103260.19;4978471;28;20030;-74
2022/03/23 06:57:02;;;;;;;47.00;23.35;;;;;;;3.55;nan;103251.53;4972968;28;20030;-73
2022/03/23 06:59:28;;;;;;;45.45;22.35;;;;;;;3.64;nan;103252.53;4974572;28;20026;-74
2022/03/23 07:01:54;;;;;;;39.33;20.65;;;;;;;3.73;nan;103251.66;4977797;28;20037;-74
2022/03/23 07:04:19;;;;;;;44.40;20.98;;;;;;;3.85;nan;103255.84;4970242;28;20392;-73
2022/03/23 07:06:45;;;;;;;37.95;20.35;;;;;;;3.97;nan;103251.22;4979936;28;20061;-74
2022/03/23 07:11:54;;;;;;;37.20;19.55;;;;;;;4.22;nan;103253.22;4978832;28;20042;-74
2022/03/23 07:14:20;;;;;;;40.63;20.25;;;;;;;4.35;nan;103260.88;4981675;28;20082;-74
2022/03/23 07:16:46;;;;;;;37.88;19.80;;;;;;;4.49;nan;103260.41;4979494;28;20030;-74
2022/03/23 07:19:13;;;;;;;43.53;22.05;;;;;;;4.64;nan;103257.22;4977547;28;20038;-74
2022/03/23 07:21:39;;;;;;;46.20;21.27;;;;;;;4.79;nan;103264.56;4971751;28;20046;-74
2022/03/23 07:24:05;;;;;;;42.92;20.65;;;;;;;4.94;nan;103269.38;4976385;28;20033;-75
2022/03/23 07:26:31;;;;;;;44.70;21.05;;;;;;;5.06;nan;103258.41;4979600;28;20384;-74
2022/03/23 07:28:56;;;;;;;42.58;22.58;;;;;;;5.20;nan;103269.47;4985134;28;20030;-74
2022/03/23 07:31:22;;;;;;;43.88;21.33;;;;;;;5.32;nan;103257.63;4977724;28;20057;-74
2022/03/23 07:33:48;;;;;;;43.63;23.17;;;;;;;5.46;nan;103259.75;4975157;28;20238;-75
2022/03/23 07:36:13;;;;;;;44.83;23.02;;;;;;;5.60;nan;103259.22;4978588;28;20105;-75
2022/03/23 07:38:40;;;;;;;46.88;23.42;;;;;;;5.75;nan;103263.00;4978781;28;20027;-74
2022/03/23 07:41:05;;;;;;;46.10;22.27;;;;;;;5.91;nan;103258.81;4979170;28;20432;-74
2022/03/23 07:43:31;;;;;;;48.85;23.77;;;;;;;6.06;nan;103260.75;4976478;28;20066;-74
2022/03/23 07:45:57;;;;;;;44.13;23.08;;;;;;;6.20;nan;103251.34;4978828;28;20027;-75
2022/03/23 07:48:23;;;;;;;44.03;23.23;;;;;;;6.34;nan;103256.09;4979313;28;20030;-75
2022/03/23 07:50:50;;;;;;;43.08;21.27;;;;;;;6.50;nan;103251.84;4979005;28;20034;-74
2022/03/23 07:53:17;;;;;;;45.20;23.42;;;;;;;6.64;nan;103252.06;4984960;28;20113;-74
2022/03/23 07:55:42;;;;;;;47.95;24.00;;;;;;;6.80;nan;103251.28;4980050;28;20037;-75
2022/03/23 07:58:08;;;;;;;42.92;23.35;;;;;;;6.95;nan;103262.13;4981201;28;20026;-75
2022/03/23 08:00:34;;;;;;;52.42;25.92;;;;;;;7.11;nan;103256.84;4983488;28;20041;-75
2022/03/23 08:02:59;;;;;;;45.50;23.42;;;;;;;7.25;nan;103250.03;4982765;28;20029;-74
2022/03/23 08:05:25;;;;;;;48.95;23.80;;;;;;;7.43;nan;103247.22;4980502;28;20030;-74
2022/03/23 08:07:51;;;;;;;50.47;24.02;;;;;;;7.58;nan;103245.56;4976685;28;20465;-74
2022/03/23 08:10:17;;;;;;;51.90;25.30;;;;;;;7.74;nan;103240.22;4979554;28;20036;-75
2022/03/23 08:12:42;;;;;;;53.72;26.25;;;;;;;7.89;nan;103241.19;4972505;28;21878;-75
2022/03/23 08:15:12;;;;;;;53.28;25.25;;;;;;;8.05;nan;103243.00;4977332;28;20022;-75
2022/03/23 08:17:40;;;;;;;50.17;26.55;;;;;;;8.21;nan;103244.78;4973486;28;20031;-75
2022/03/23 08:22:52;;;;;;;51.80;25.92;;;;;;;8.58;nan;103238.00;4975678;28;20444;-75
2022/03/23 08:25:17;;;;;;;47.13;26.15;;;;;;;8.70;nan;103234.78;4978191;28;20026;-75
2022/03/23 08:27:43;;;;;;;47.88;24.40;;;;;;;8.86;nan;103241.06;4975401;28;20062;-75
2022/03/23 08:30:09;;;;;;;48.00;24.38;;;;;;;9.02;nan;103247.13;4977045;28;20148;-75
2022/03/23 08:32:34;;;;;;;53.38;25.60;;;;;;;9.17;nan;103241.03;4973061;28;20031;-75
2022/03/23 08:35:00;;;;;;;48.00;25.20;;;;;;;9.34;nan;103238.06;4979758;28;20030;-75
2022/03/23 08:37:26;;;;;;;39.90;22.98;;;;;;;9.50;nan;103237.06;4972265;28;20946;-75
2022/03/23 08:39:52;;;;;;;49.28;23.75;;;;;;;9.63;nan;103239.97;4973750;28;20026;-75
2022/03/23 08:42:18;;;;;;;49.60;24.67;;;;;;;9.72;nan;103235.41;4977665;28;20047;-75
2022/03/23 08:44:45;;;;;;;44.30;22.48;;;;;;;9.81;nan;103239.63;4977408;28;20038;-75
2022/03/23 08:47:12;;;;;;;42.33;22.55;;;;;;;9.98;nan;103230.44;4971883;28;20077;-75
2022/03/23 08:49:37;;;;;;;44.80;23.55;;;;;;;10.19;nan;103236.91;4971759;28;20022;-75
2022/03/23 08:52:04;;;;;;;42.47;23.50;;;;;;;10.36;nan;103237.56;4973438;28;20090;-75
2022/03/23 08:54:29;;;;;;;42.97;23.02;;;;;;;10.53;nan;103231.00;4974106;28;20022;-75
2022/03/23 08:56:55;;;;;;;40.95;23.13;;;;;;;10.72;nan;103234.94;4978822;28;20439;-75
2022/03/23 08:59:20;;;;;;;36.97;21.48;;;;;;;10.92;nan;103240.53;4973115;28;20026;-74
2022/03/23 09:01:46;;;;;;;37.35;20.83;;;;;;;11.11;nan;103234.53;4970693;28;20159;-74
2022/03/23 09:04:11;;;;;;;37.70;21.10;;;;;;;11.29;nan;103234.09;4967336;28;20027;-74
2022/03/23 09:06:37;;;;;;;34.25;20.38;;;;;;;11.47;nan;103237.97;4975521;28;20211;-74
2022/03/23 09:09:03;;;;;;;35.78;20.35;;;;;;;11.64;nan;103232.34;4972069;28;20030;-74
2022/03/23 09:11:29;;;;;;;35.13;20.58;;;;;;;11.80;nan;103230.22;4974747;28;20034;-74
2022/03/23 09:13:57;;;;;;;36.97;20.60;;;;;;;11.94;nan;103225.78;4974605;28;20038;-74
2022/03/23 09:16:22;;;;;;;37.92;20.60;;;;;;;12.09;nan;103222.97;4975923;28;20034;-75
2022/03/23 09:18:49;;;;;;;39.83;20.70;;;;;;;12.24;nan;103221.00;4971143;28;20023;-75
2022/03/23 09:21:16;;;;;;;36.13;21.45;;;;;;;12.43;nan;103222.13;4970971;28;20041;-75
2022/03/23 09:23:41;;;;;;;35.38;20.70;;;;;;;12.57;nan;103217.66;4979165;28;20027;-76
2022/03/23 09:26:11;;;;;;;36.78;20.23;;;;;;;12.72;nan;103223.66;4973022;28;20113;-75
2022/03/23 09:28:38;;;;;;;38.50;21.27;;;;;;;12.86;nan;103214.63;4970945;28;20026;-75
2022/03/23 09:31:03;;;;;;;41.67;22.25;;;;;;;13.02;nan;103213.41;4972360;28;20136;-75
2022/03/23 09:33:30;;;;;;;37.22;21.60;;;;;;;13.18;nan;103217.63;4976609;28;20038;-75
2022/03/23 09:35:56;;;;;;;40.15;22.13;;;;;;;13.31;nan;103225.72;4970109;28;20038;-76
2022/03/23 09:38:21;;;;;;;38.58;21.45;;;;;;;13.42;nan;103217.00;4970873;28;20035;-75
2022/03/23 09:40:50;;;;;;;40.92;20.88;;;;;;;13.61;nan;103218.03;4975915;28;20030;-76
2022/03/23 09:43:20;;;;;;;35.20;21.17;;;;;;;13.75;nan;103224.25;4972678;28;20106;-75
2022/03/23 09:45:46;;;;;;;37.92;21.50;;;;;;;13.85;nan;103219.28;4974344;28;20030;-76
2022/03/23 09:48:16;;;;;;;34.25;20.67;;;;;;;13.99;nan;103215.47;4974372;28;20035;-76
2022/03/23 09:50:45;;;;;;;35.45;21.13;;;;;;;14.11;nan;103219.19;4969619;28;20034;-77
2022/03/23 09:53:11;;;;;;;35.97;19.88;;;;;;;14.27;nan;103209.81;4971210;28;20023;-76
2022/03/23 09:55:36;;;;;;;36.10;19.48;;;;;;;14.43;nan;103211.22;4971365;28;20026;-76
2022/03/23 09:58:05;;;;;;;33.22;19.75;;;;;;;14.57;nan;103217.44;4975497;28;20404;-76
2022/03/23 10:00:38;;;;;;;35.58;21.15;;;;;;;14.67;nan;103213.19;4970154;28;20030;-76
2022/03/23 10:03:07;;;;;;;37.13;19.52;;;;;;;14.81;nan;103213.97;4975091;28;20551;-76
2022/03/23 10:05:42;;;;;;;34.67;20.98;;;;;;;14.92;nan;103204.38;4971443;28;20033;-76
2022/03/23 10:08:23;;;;;;;33.78;20.48;;;;;;;15.01;nan;103217.38;4969852;28;20034;-76
2022/03/23 10:11:22;;;;;;;35.60;19.88;;;;;;;15.15;nan;103203.78;4972132;28;20125;-76
2022/03/23 10:14:09;;;;;;;31.00;19.77;;;;;;;15.30;nan;103215.09;4975469;28;20647;-76
2022/03/23 10:17:01;;;;;;;33.92;20.50;;;;;;;15.42;nan;103194.41;4975923;28;20031;-76
2022/03/23 10:19:26;;;;;;;29.98;18.73;;;;;;;15.66;nan;103195.50;4968183;28;20408;-75
2022/03/23 10:21:52;;;;;;;33.55;20.02;;;;;;;15.77;nan;103200.16;4969875;28;20022;-76
2022/03/23 10:24:18;;;;;;;38.05;20.70;;;;;;;15.88;nan;103191.31;4970262;28;20071;-76
2022/03/23 10:26:43;;;;;;;35.03;20.58;;;;;;;15.99;nan;103193.28;4969186;28;20503;-76
2022/03/23 10:29:22;;;;;;;30.60;19.92;;;;;;;16.08;nan;103187.56;4972651;28;20033;-76
2022/03/23 10:31:58;;;;;;;29.92;19.63;;;;;;;16.24;nan;103187.78;4978677;28;20026;-76
2022/03/23 10:34:24;;;;;;;36.28;19.42;;;;;;;16.36;nan;103190.56;4972972;28;20030;-75
2022/03/23 10:36:54;;;;;;;33.35;18.98;;;;;;;16.43;nan;103191.28;4968858;28;20058;-76
2022/03/23 10:39:27;;;;;;;31.30;18.90;;;;;;;16.53;nan;103185.34;4970805;28;20034;-75
2022/03/23 10:42:07;;;;;;;29.48;20.40;;;;;;;16.62;nan;103184.78;4976726;28;20042;-75
2022/03/23 10:44:33;;;;;;;28.50;18.20;;;;;;;16.74;nan;103184.88;4971826;28;20022;-75
2022/03/23 10:46:59;;;;;;;27.83;17.92;;;;;;;16.84;nan;103173.47;4973202;28;20595;-75
2022/03/23 10:49:33;;;;;;;27.33;17.17;;;;;;;16.93;nan;103174.81;4970585;28;20125;-75
2022/03/23 10:52:14;;;;;;;25.13;16.55;;;;;;;17.03;nan;103176.94;4970495;28;20037;-75
2022/03/23 10:55:00;;;;;;;24.42;16.10;;;;;;;17.14;nan;103176.97;4968480;28;20034;-75
2022/03/23 10:57:44;;;;;;;26.98;17.70;;;;;;;17.27;nan;103175.09;4969995;28;20034;-76
2022/03/23 11:00:38;;;;;;;25.25;16.48;;;;;;;17.39;nan;103181.34;4977373;28;20039;-76
2022/03/23 11:03:06;;;;;;;28.05;16.50;;;;;;;17.54;nan;103176.28;4986698;28;20550;-76
2022/03/23 11:05:38;;;;;;;24.30;16.85;;;;;;;17.63;nan;103174.06;4974772;28;20027;-76
2022/03/23 11:08:14;;;;;;;23.88;16.20;;;;;;;17.67;nan;103173.34;4976249;28;20034;-76
2022/03/23 11:16:23;;;;;;;25.55;16.05;;;;;;;18.09;nan;103162.31;4975479;28;20077;-75
2022/03/23 11:18:48;;;;;;;24.58;16.10;;;;;;;18.19;nan;103167.97;4982878;28;20110;-76
2022/03/23 11:21:14;;;;;;;22.48;16.30;;;;;;;18.27;nan;103159.44;4975478;28;20185;-76
2022/03/23 11:23:40;;;;;;;22.88;15.73;;;;;;;18.38;nan;103158.59;4974875;28;20038;-76
2022/03/23 11:26:11;;;;;;;23.77;15.90;;;;;;;18.49;nan;103148.75;4974849;28;20034;-76
2022/03/23 11:28:40;;;;;;;25.38;15.75;;;;;;;18.65;nan;103149.88;4976022;28;20018;-76
2022/03/23 11:31:11;;;;;;;24.33;15.10;;;;;;;18.69;nan;103145.63;4975948;28;20035;-76
2022/03/23 11:33:38;;;;;;;22.05;14.48;;;;;;;18.81;nan;103150.97;4976311;28;20034;-76
2022/03/23 11:36:08;;;;;;;21.25;14.38;;;;;;;18.93;nan;103146.28;4980702;28;20041;-76
2022/03/23 11:38:34;;;;;;;21.73;14.75;;;;;;;19.07;nan;103154.97;4982988;28;20023;-76
2022/03/23 11:41:00;;;;;;;20.88;14.25;;;;;;;19.16;nan;103150.75;4976368;28;20057;-76
2022/03/23 11:43:29;;;;;;;19.35;14.27;;;;;;;19.28;nan;103140.63;4976198;28;20589;-75
2022/03/23 11:45:57;;;;;;;24.40;15.23;;;;;;;19.43;nan;103146.28;4975972;28;20128;-76
2022/03/23 11:49:08;;;;;;;20.27;14.70;;;;;;;19.51;nan;103153.19;4980323;28;20042;-75
2022/03/23 11:52:19;;;;;;;21.73;14.48;;;;;;;19.67;nan;103138.75;4977544;28;20524;-75
2022/03/23 11:58:02;;;;;;;21.98;14.40;;;;;;;20.14;nan;103127.38;4979957;28;20041;-76